createdAt,value
2019-01-18T00:01:08.158Z,73.37
2019-01-18T00:03:37.923Z,73.87
2019-01-18T00:06:07.773Z,74.71
2019-01-18T00:08:37.999Z,75.66
2019-01-18T00:11:08.269Z,76.39
2019-01-18T00:13:38.480Z,76.99
2019-01-18T00:16:08.414Z,77.46
2019-01-18T00:18:39.090Z,77.79
2019-01-18T00:21:09.102Z,77.62
2019-01-18T00:23:38.888Z,77.45
2019-01-18T00:26:08.645Z,75.92
2019-01-18T00:28:38.483Z,76.50
2019-01-18T00:31:08.353Z,76.70
2019-01-18T00:33:38.137Z,77.48
2019-01-18T00:36:08.117Z,77.90
2019-01-18T00:38:37.869Z,78.18
2019-01-18T00:41:07.670Z,78.33
2019-01-18T00:43:37.410Z,78.42
2019-01-18T00:46:08.201Z,78.74
2019-01-18T00:48:37.935Z,79.03
2019-01-18T00:51:07.740Z,79.20
2019-01-18T00:53:37.458Z,79.65
2019-01-18T00:56:07.301Z,79.85
2019-01-18T00:58:37.061Z,80.05
2019-01-18T01:01:06.904Z,79.98
2019-01-18T01:03:36.800Z,80.25
2019-01-18T01:06:06.570Z,80.34
2019-01-18T01:08:36.333Z,80.28
2019-01-18T01:11:06.298Z,80.58
2019-01-18T01:13:36.124Z,80.72
2019-01-18T01:16:06.963Z,80.76
2019-01-18T01:18:36.676Z,80.84
2019-01-18T01:21:06.635Z,81.01
2019-01-18T01:23:36.444Z,81.40
2019-01-18T01:26:06.245Z,81.20
2019-01-18T01:28:36.084Z,81.23
2019-01-18T01:31:05.905Z,81.58
2019-01-18T01:33:35.671Z,81.46
2019-01-18T01:36:05.487Z,81.44
2019-01-18T01:38:35.358Z,81.48
2019-01-18T01:41:05.140Z,81.30
2019-01-18T01:43:34.957Z,80.59
2019-01-18T01:46:04.823Z,80.54
2019-01-18T01:48:35.457Z,80.55
2019-01-18T01:51:05.687Z,80.58
2019-01-18T01:53:36.078Z,80.75
2019-01-18T01:56:05.989Z,80.90
2019-01-18T01:58:35.758Z,80.99
2019-01-18T02:01:05.564Z,80.87
2019-01-18T02:03:35.351Z,81.02
2019-01-18T02:06:05.119Z,80.96
2019-01-18T02:08:34.877Z,80.86
2019-01-18T02:11:04.774Z,80.83
2019-01-18T02:13:34.614Z,80.82
2019-01-18T02:16:04.500Z,81.10
2019-01-18T02:18:34.335Z,80.36
2019-01-18T02:21:04.264Z,80.68
2019-01-18T02:23:34.043Z,80.82
2019-01-18T02:26:03.849Z,81.11
2019-01-18T02:28:33.596Z,80.69
2019-01-18T02:31:03.372Z,80.39
2019-01-18T02:33:33.130Z,80.50
2019-01-18T02:36:02.975Z,79.95
2019-01-18T02:38:32.745Z,80.10
2019-01-18T02:41:02.979Z,80.19
2019-01-18T02:43:32.909Z,80.54
2019-01-18T02:46:04.318Z,80.46
2019-01-18T02:48:34.274Z,80.33
2019-01-18T02:51:04.117Z,80.33
2019-01-18T02:53:33.872Z,80.67
2019-01-18T02:56:03.691Z,80.89
2019-01-18T02:58:33.410Z,80.99
2019-01-18T03:01:03.192Z,80.99
2019-01-18T03:03:32.956Z,81.20
2019-01-18T03:06:02.783Z,81.42
2019-01-18T03:08:32.554Z,81.84
2019-01-18T03:11:03.352Z,82.08
2019-01-18T03:13:33.178Z,82.35
2019-01-18T03:16:02.982Z,82.53
2019-01-18T03:18:32.787Z,82.58
2019-01-18T03:21:02.930Z,82.77
2019-01-18T03:23:33.127Z,82.90
2019-01-18T03:26:03.287Z,83.06
2019-01-18T03:28:33.418Z,82.95
2019-01-18T03:31:03.408Z,82.90
2019-01-18T03:33:35.826Z,83.08
2019-01-18T03:36:05.849Z,83.20
2019-01-18T03:38:35.656Z,82.95
2019-01-18T03:41:08.041Z,82.85
2019-01-18T03:43:38.052Z,82.82
2019-01-18T03:46:07.850Z,83.04
2019-01-18T03:48:37.576Z,83.10
2019-01-18T03:51:07.337Z,83.09
2019-01-18T03:53:37.133Z,83.16
2019-01-18T03:56:06.957Z,83.15
2019-01-18T03:58:36.761Z,83.04
2019-01-18T04:01:07.330Z,82.97
2019-01-18T04:03:37.080Z,83.07
2019-01-18T04:06:06.835Z,82.29
2019-01-18T04:08:36.684Z,82.51
2019-01-18T04:11:06.681Z,82.99
2019-01-18T04:13:36.475Z,83.36
2019-01-18T04:16:06.388Z,83.42
2019-01-18T04:18:36.156Z,83.28
2019-01-18T04:21:05.925Z,83.14
2019-01-18T04:23:35.676Z,83.11
2019-01-18T04:26:05.428Z,83.02
2019-01-18T04:28:35.238Z,82.88
2019-01-18T04:31:05.087Z,83.24
2019-01-18T04:33:34.874Z,83.29
2019-01-18T04:36:04.649Z,83.74
2019-01-18T04:38:34.356Z,84.14
2019-01-18T04:41:04.126Z,84.21
2019-01-18T04:43:33.958Z,84.08
2019-01-18T04:46:03.845Z,84.52
2019-01-18T04:48:33.560Z,84.80
2019-01-18T04:51:03.371Z,85.00
2019-01-18T04:53:33.172Z,85.41
2019-01-18T04:56:02.963Z,85.52
2019-01-18T04:58:32.918Z,85.47
2019-01-18T05:01:02.700Z,85.40
2019-01-18T05:03:32.540Z,85.30
2019-01-18T05:06:02.355Z,85.52
2019-01-18T05:08:32.149Z,85.64
2019-01-18T05:11:01.964Z,85.82
2019-01-18T05:13:32.024Z,85.87
2019-01-18T05:16:03.144Z,85.84
2019-01-18T05:18:32.983Z,85.97
2019-01-18T05:21:02.810Z,85.97
2019-01-18T05:23:32.831Z,85.97
2019-01-18T05:26:02.591Z,86.09
2019-01-18T05:28:32.376Z,86.20
2019-01-18T05:31:02.183Z,86.18
2019-01-18T05:33:31.941Z,86.31
2019-01-18T05:36:01.804Z,86.28
2019-01-18T05:38:31.580Z,86.32
2019-01-18T05:41:01.355Z,86.64
2019-01-18T05:43:31.156Z,86.69
2019-01-18T05:46:00.976Z,86.94
2019-01-18T05:48:30.731Z,86.97
2019-01-18T05:51:00.504Z,86.95
2019-01-18T05:53:30.524Z,87.08
2019-01-18T05:56:00.335Z,86.98
2019-01-18T05:58:31.208Z,86.77
2019-01-18T06:01:02.660Z,86.66
2019-01-18T06:03:32.562Z,86.74
2019-01-18T06:06:02.343Z,86.84
2019-01-18T06:08:32.276Z,86.84
2019-01-18T06:11:02.075Z,86.77
2019-01-18T06:13:31.872Z,86.50
2019-01-18T06:16:01.724Z,86.55
2019-01-18T06:18:31.467Z,86.65
2019-01-18T06:21:01.276Z,86.39
2019-01-18T06:23:31.117Z,86.51
2019-01-18T06:26:00.851Z,86.45
2019-01-18T06:28:31.002Z,86.27
2019-01-18T06:31:01.833Z,86.27
2019-01-18T06:33:31.924Z,86.33
2019-01-18T06:36:01.758Z,86.25
2019-01-18T06:38:31.503Z,86.08
2019-01-18T06:41:02.812Z,86.04
2019-01-18T06:43:32.553Z,86.04
2019-01-18T06:46:02.359Z,87.54
2019-01-18T06:48:32.504Z,87.24
2019-01-18T06:51:02.140Z,86.87
2019-01-18T06:53:31.931Z,86.02
2019-01-18T06:56:01.721Z,87.23
2019-01-18T06:58:31.618Z,85.61
2019-01-18T07:01:01.396Z,82.68
2019-01-18T07:03:31.149Z,81.53
2019-01-18T07:06:00.987Z,81.11
2019-01-18T07:08:30.768Z,81.56
2019-01-18T07:11:00.576Z,80.76
2019-01-18T07:13:30.414Z,81.27
2019-01-18T07:16:00.241Z,81.98
2019-01-18T07:18:30.037Z,81.30
2019-01-18T07:20:59.998Z,82.20
2019-01-18T07:23:29.794Z,83.53
2019-01-18T07:25:59.632Z,84.28
2019-01-18T07:28:29.413Z,84.57
2019-01-18T07:30:59.173Z,84.73
2019-01-18T07:33:29.148Z,84.94
2019-01-18T07:35:58.942Z,84.92
2019-01-18T07:38:28.749Z,84.43
2019-01-18T07:40:58.534Z,84.62
2019-01-18T07:43:28.320Z,84.33
2019-01-18T07:45:58.197Z,84.40
2019-01-18T07:48:28.129Z,83.48
2019-01-18T07:50:58.016Z,84.24
2019-01-18T07:53:27.798Z,84.39
2019-01-18T07:55:57.767Z,83.43
2019-01-18T07:58:27.575Z,83.76
2019-01-18T08:00:57.635Z,84.46
2019-01-18T08:03:27.469Z,84.81
2019-01-18T08:05:57.271Z,84.78
2019-01-18T08:08:27.146Z,84.71
2019-01-18T08:10:56.929Z,83.72
2019-01-18T08:13:26.735Z,84.54
2019-01-18T08:15:56.768Z,85.01
2019-01-18T08:18:26.580Z,84.80
2019-01-18T08:20:58.108Z,84.54
2019-01-18T08:23:27.907Z,83.95
2019-01-18T08:25:57.825Z,84.39
2019-01-18T08:28:27.655Z,83.72
2019-01-18T08:30:57.473Z,88.34
2019-01-18T08:33:27.200Z,86.39
2019-01-18T08:35:57.028Z,82.89
2019-01-18T08:38:26.825Z,82.17
2019-01-18T08:40:56.665Z,81.97
2019-01-18T08:43:26.389Z,82.21
2019-01-18T08:45:56.178Z,82.50
2019-01-18T08:48:25.971Z,82.23
2019-01-18T08:50:56.201Z,83.14
2019-01-18T08:53:25.986Z,82.94
2019-01-18T08:55:55.756Z,83.64
2019-01-18T08:58:25.526Z,83.87
2019-01-18T09:00:56.437Z,83.90
2019-01-18T09:03:26.184Z,83.68
2019-01-18T09:05:56.009Z,83.38
2019-01-18T09:08:25.990Z,83.46
2019-01-18T09:10:55.814Z,83.35
2019-01-18T09:13:25.799Z,83.37
2019-01-18T09:15:55.902Z,83.36
2019-01-18T09:18:25.609Z,83.18
2019-01-18T09:20:55.419Z,83.47
2019-01-18T09:23:25.190Z,83.56
2019-01-18T09:25:55.029Z,83.42
2019-01-18T09:28:24.854Z,83.60
2019-01-18T09:30:54.659Z,83.51
2019-01-18T09:33:24.360Z,83.49
2019-01-18T09:35:54.360Z,84.45
2019-01-18T09:38:24.165Z,83.61
2019-01-18T09:40:53.984Z,82.92
2019-01-18T09:43:23.764Z,83.04
2019-01-18T09:45:53.587Z,82.51
2019-01-18T09:48:23.364Z,82.14
2019-01-18T09:50:53.133Z,81.64
2019-01-18T09:53:22.983Z,81.47
2019-01-18T09:55:52.782Z,81.62
2019-01-18T09:58:22.533Z,81.41
2019-01-18T10:00:52.363Z,80.92
2019-01-18T10:03:22.105Z,81.04
2019-01-18T10:05:51.903Z,81.10
2019-01-18T10:08:21.784Z,80.24
2019-01-18T10:10:51.545Z,79.94
2019-01-18T10:13:21.396Z,79.42
2019-01-18T10:15:51.192Z,78.60
2019-01-18T10:18:21.902Z,80.13
2019-01-18T10:20:51.817Z,79.12
2019-01-18T10:23:21.878Z,77.78
2019-01-18T10:25:51.838Z,78.96
2019-01-18T10:28:21.644Z,77.08
2019-01-18T10:30:52.184Z,76.11
2019-01-18T10:33:21.987Z,75.07
2019-01-18T10:35:51.795Z,76.58
2019-01-18T10:38:21.662Z,76.34
2019-01-18T10:40:51.476Z,76.21
2019-01-18T10:43:21.247Z,75.94
2019-01-18T10:45:51.057Z,74.42
2019-01-18T10:48:20.800Z,73.42
2019-01-18T10:50:50.529Z,73.88
2019-01-18T10:53:20.366Z,74.22
2019-01-18T10:55:50.166Z,74.39
2019-01-18T10:58:19.987Z,75.25
2019-01-18T11:00:51.013Z,74.12
2019-01-18T11:03:20.841Z,72.37
2019-01-18T11:05:51.387Z,72.54
2019-01-18T11:08:21.215Z,72.88
2019-01-18T11:10:51.008Z,72.73
2019-01-18T11:13:20.803Z,72.74
2019-01-18T11:15:50.543Z,72.90
2019-01-18T11:18:21.581Z,72.10
2019-01-18T11:20:54.496Z,72.02
2019-01-18T11:23:25.800Z,72.31
2019-01-18T11:25:55.790Z,72.38
2019-01-18T11:28:25.570Z,72.42
2019-01-18T11:30:55.599Z,72.53
2019-01-18T11:33:25.679Z,71.92
2019-01-18T11:35:55.492Z,72.41
2019-01-18T11:38:25.515Z,72.07
2019-01-18T11:40:55.848Z,71.84
2019-01-18T11:43:25.671Z,72.09
2019-01-18T11:45:55.480Z,72.00
2019-01-18T11:48:25.431Z,70.08
2019-01-18T11:50:56.218Z,69.99
2019-01-18T11:53:25.989Z,66.73
2019-01-18T11:55:55.783Z,66.53
2019-01-18T11:58:25.584Z,66.17
2019-01-18T12:00:55.392Z,66.01
2019-01-18T12:03:25.185Z,66.90
2019-01-18T12:05:55.129Z,67.87
2019-01-18T12:08:25.095Z,68.24
2019-01-18T12:10:55.075Z,67.72
2019-01-18T12:13:24.934Z,67.71
2019-01-18T12:15:54.889Z,67.06
2019-01-18T12:18:24.735Z,65.80
2019-01-18T12:20:56.524Z,65.28
2019-01-18T12:23:27.336Z,65.41
2019-01-18T12:25:57.158Z,65.90
2019-01-18T12:28:27.116Z,65.57
2019-01-18T12:30:58.554Z,65.28
2019-01-18T12:33:28.469Z,65.11
2019-01-18T12:35:58.336Z,65.63
2019-01-18T12:38:28.835Z,65.16
2019-01-18T12:41:00.273Z,65.08
2019-01-18T12:43:30.213Z,65.41
2019-01-18T12:46:00.188Z,63.36
2019-01-18T12:48:30.139Z,62.52
2019-01-18T12:51:00.140Z,61.52
2019-01-18T12:53:30.445Z,63.07
2019-01-18T12:56:00.311Z,63.15
2019-01-18T12:58:30.070Z,63.31
2019-01-18T13:01:00.065Z,61.79
2019-01-18T13:03:29.803Z,61.87
2019-01-18T13:06:00.344Z,61.00
2019-01-18T13:08:30.120Z,61.12
2019-01-18T13:11:00.029Z,60.53
2019-01-18T13:13:29.746Z,60.41
2019-01-18T13:16:05.129Z,57.10
2019-01-18T13:18:35.109Z,57.57
2019-01-18T13:21:04.889Z,57.83
2019-01-18T13:23:34.673Z,55.70
2019-01-18T13:26:04.533Z,55.19
2019-01-18T13:28:34.323Z,51.26
2019-01-18T13:31:04.192Z,53.24
2019-01-18T13:33:33.944Z,52.03
2019-01-18T13:36:05.292Z,49.44
2019-01-18T13:38:35.107Z,48.84
2019-01-18T13:41:04.915Z,50.61
2019-01-18T13:43:34.699Z,52.25
2019-01-18T13:46:04.575Z,53.33
2019-01-18T13:48:34.369Z,53.68
2019-01-18T13:51:04.136Z,51.94
2019-01-18T13:53:34.127Z,52.43
2019-01-18T13:56:03.804Z,53.46
2019-01-18T13:58:33.615Z,54.20
2019-01-18T14:01:04.216Z,55.78
2019-01-18T14:03:35.638Z,56.24
2019-01-18T14:06:05.616Z,55.48
2019-01-18T14:08:35.410Z,55.20
2019-01-18T14:11:05.300Z,54.45
2019-01-18T14:13:37.463Z,55.44
2019-01-18T14:16:06.656Z,56.06
2019-01-18T14:18:36.596Z,56.35
2019-01-18T14:21:06.428Z,56.34
2019-01-18T14:23:36.335Z,54.74
2019-01-18T14:26:06.143Z,52.83
2019-01-18T14:28:36.129Z,48.93
2019-01-18T14:31:05.920Z,48.10
2019-01-18T14:33:35.745Z,44.79
2019-01-18T14:36:05.707Z,44.20
2019-01-18T14:38:35.494Z,44.07
2019-01-18T14:41:05.300Z,41.39
2019-01-18T14:43:35.092Z,42.04
2019-01-18T14:46:04.865Z,41.93
2019-01-18T14:48:34.713Z,43.39
2019-01-18T14:51:05.174Z,41.44
2019-01-18T14:53:35.105Z,42.37
2019-01-18T14:56:05.486Z,42.16
2019-01-18T14:58:35.283Z,43.20
2019-01-18T15:01:05.180Z,43.84
2019-01-18T15:03:34.989Z,43.41
2019-01-18T15:06:04.950Z,43.27
2019-01-18T15:08:34.836Z,43.61
2019-01-18T15:11:04.642Z,44.42
2019-01-18T15:13:34.465Z,44.53
2019-01-18T15:16:04.411Z,45.25
2019-01-18T15:18:34.288Z,44.73
2019-01-18T15:21:04.060Z,44.17
2019-01-18T15:23:33.888Z,44.16
2019-01-18T15:26:03.661Z,44.15
2019-01-18T15:28:33.505Z,44.30
2019-01-18T15:31:03.340Z,44.08
2019-01-18T15:33:33.177Z,44.51
2019-01-18T15:36:02.969Z,45.00
2019-01-18T15:38:32.981Z,45.61
2019-01-18T15:41:02.888Z,46.13
2019-01-18T15:43:32.655Z,46.64
2019-01-18T15:46:02.850Z,47.34
2019-01-18T15:48:33.088Z,48.52
2019-01-18T15:51:03.298Z,50.83
2019-01-18T15:53:33.538Z,52.28
2019-01-18T15:56:03.309Z,53.73
2019-01-18T15:58:33.157Z,54.52
2019-01-18T16:01:03.340Z,56.32
2019-01-18T16:03:33.300Z,58.71
2019-01-18T16:06:03.135Z,58.06
2019-01-18T16:08:32.987Z,58.43
2019-01-18T16:11:02.795Z,58.47
2019-01-18T16:13:32.631Z,58.48
2019-01-18T16:16:05.221Z,57.76
2019-01-18T16:18:35.013Z,50.78
2019-01-18T16:21:04.794Z,51.52
2019-01-18T16:23:34.576Z,51.27
2019-01-18T16:26:04.450Z,48.50
2019-01-18T16:28:34.258Z,49.71
2019-01-18T16:31:04.044Z,48.37
2019-01-18T16:33:33.904Z,48.27
2019-01-18T16:36:03.989Z,45.77
2019-01-18T16:38:33.783Z,43.37
2019-01-18T16:41:03.608Z,44.81
2019-01-18T16:43:34.520Z,42.61
2019-01-18T16:46:04.683Z,42.41
2019-01-18T16:48:34.683Z,43.06
2019-01-18T16:51:04.478Z,43.95
2019-01-18T16:53:34.363Z,44.54
2019-01-18T16:56:04.241Z,44.21
2019-01-18T16:58:33.993Z,45.17
2019-01-18T17:01:03.784Z,44.60
2019-01-18T17:03:33.606Z,45.66
2019-01-18T17:06:03.455Z,45.66
2019-01-18T17:08:33.435Z,46.40
2019-01-18T17:11:03.391Z,47.52
2019-01-18T17:13:34.067Z,47.76
2019-01-18T17:16:03.957Z,48.58
2019-01-18T17:18:33.835Z,48.19
2019-01-18T17:21:03.798Z,48.29
2019-01-18T17:23:34.132Z,46.80
2019-01-18T17:26:04.038Z,47.78
2019-01-18T17:28:33.793Z,49.12
2019-01-18T17:31:03.570Z,49.14
2019-01-18T17:33:37.141Z,48.36
2019-01-18T17:36:16.605Z,47.97
2019-01-18T17:38:48.482Z,47.66
2019-01-18T17:41:41.143Z,44.72
2019-01-18T17:44:23.107Z,44.23
2019-01-18T17:47:14.072Z,44.25
2019-01-18T17:50:14.001Z,43.85
2019-01-18T17:52:53.342Z,43.03
2019-01-18T17:55:33.018Z,42.83
2019-01-18T17:58:21.564Z,42.85
2019-01-18T18:01:15.651Z,42.24
2019-01-18T18:04:04.848Z,42.71
2019-01-18T18:06:38.134Z,42.42
2019-01-18T18:09:15.126Z,43.10
2019-01-18T18:11:50.794Z,43.83
2019-01-18T18:14:26.772Z,49.74
2019-01-18T18:17:17.672Z,46.73
2019-01-18T18:20:05.433Z,47.72
2019-01-18T18:22:54.058Z,47.91
2019-01-18T18:25:43.515Z,48.61
2019-01-18T18:28:31.291Z,46.95
2019-01-18T18:31:09.932Z,48.66
2019-01-18T18:34:01.610Z,49.77
2019-01-18T18:36:38.653Z,49.77
2019-01-18T18:39:11.432Z,45.98
2019-01-18T18:42:06.019Z,46.94
2019-01-18T18:45:03.596Z,47.13
2019-01-18T18:48:07.522Z,47.13
2019-01-18T18:50:56.755Z,47.17
2019-01-18T18:53:56.185Z,47.62
2019-01-18T18:56:29.198Z,47.43
2019-01-18T18:59:14.634Z,48.17
2019-01-18T19:02:12.458Z,48.53
2019-01-18T19:04:50.953Z,48.71
2019-01-18T19:07:32.913Z,49.30
2019-01-18T19:10:20.752Z,50.12
2019-01-18T19:13:04.632Z,51.69
2019-01-18T19:15:46.101Z,53.01
2019-01-18T19:18:27.892Z,53.50
2019-01-18T19:21:22.232Z,54.95
2019-01-18T19:24:03.945Z,56.42
2019-01-18T19:26:39.833Z,58.18
2019-01-18T19:29:30.630Z,58.77
2019-01-18T19:32:13.815Z,59.92
2019-01-18T19:35:13.794Z,60.77
2019-01-18T19:38:22.873Z,61.63
2019-01-18T19:41:04.553Z,62.52
2019-01-18T19:43:46.075Z,64.00
2019-01-18T19:46:37.432Z,64.00
2019-01-18T19:49:29.464Z,64.97
2019-01-18T19:52:09.322Z,66.50
2019-01-18T19:54:42.970Z,66.50
2019-01-18T19:57:35.389Z,73.93
2019-01-18T20:00:16.928Z,70.36
2019-01-18T20:03:03.073Z,65.24
2019-01-18T20:05:41.875Z,65.24
2019-01-18T20:08:14.772Z,66.86
2019-01-18T20:11:06.230Z,66.86
2019-01-18T20:14:10.925Z,67.20
2019-01-18T20:17:03.090Z,66.27
2019-01-18T20:19:39.807Z,66.70
2019-01-18T20:22:24.545Z,67.25
2019-01-18T20:25:15.152Z,67.25
2019-01-18T20:28:01.698Z,67.67
2019-01-18T20:30:41.578Z,68.17
2019-01-18T20:33:51.357Z,68.51
2019-01-18T20:36:45.574Z,68.07
2019-01-18T20:39:35.893Z,68.39
2019-01-18T20:42:20.512Z,67.79
2019-01-18T20:45:17.272Z,68.21
2019-01-18T20:48:03.452Z,68.33
2019-01-18T20:50:58.202Z,68.33
2019-01-18T20:53:32.214Z,68.62
2019-01-18T20:56:34.454Z,68.63
2019-01-18T20:59:31.333Z,68.63
2019-01-18T21:02:34.733Z,69.21
2019-01-18T21:05:30.154Z,69.61
2019-01-18T21:08:37.614Z,69.67
2019-01-18T21:14:40.463Z,69.31
2019-01-18T21:17:23.074Z,68.81
2019-01-18T21:20:07.415Z,68.87
2019-01-18T21:22:44.994Z,68.39
2019-01-18T21:25:31.743Z,68.87
2019-01-18T21:28:30.516Z,69.83
2019-01-18T21:31:13.640Z,70.10
2019-01-18T21:33:52.307Z,70.47
2019-01-18T21:36:36.453Z,78.57
2019-01-18T21:39:33.145Z,75.79
2019-01-18T21:42:42.100Z,71.60
2019-01-18T21:45:34.913Z,70.55
2019-01-18T21:48:32.517Z,70.54
2019-01-18T21:51:39.301Z,70.64
2019-01-18T21:54:56.686Z,71.42
2019-01-18T21:57:38.067Z,71.14
2019-01-18T22:00:22.342Z,71.79
2019-01-18T22:03:32.269Z,73.38
2019-01-18T22:06:12.771Z,73.00
2019-01-18T22:09:06.672Z,74.90
2019-01-18T22:11:59.012Z,73.91
2019-01-18T22:15:06.771Z,74.82
2019-01-18T22:17:55.561Z,75.87
2019-01-18T22:20:42.170Z,76.06
2019-01-18T22:26:39.552Z,75.00
2019-01-18T22:29:28.202Z,74.56
2019-01-18T22:32:09.316Z,74.63
2019-01-18T22:34:47.675Z,74.87
2019-01-18T22:37:29.260Z,74.51
2019-01-18T22:40:41.751Z,74.07
2019-01-18T22:43:35.732Z,74.20
2019-01-18T22:46:42.416Z,74.86
2019-01-18T22:49:31.585Z,74.69
2019-01-18T22:52:15.149Z,74.24
2019-01-18T22:55:32.712Z,74.44
2019-01-18T22:58:19.994Z,74.62
2019-01-18T23:01:30.747Z,74.20
2019-01-18T23:04:25.977Z,74.83
2019-01-18T23:07:24.580Z,74.85
2019-01-18T23:10:04.251Z,74.29
2019-01-18T23:12:46.372Z,74.79
2019-01-18T23:15:45.803Z,74.86
2019-01-18T23:18:25.512Z,75.22
2019-01-18T23:21:17.297Z,75.63
2019-01-18T23:24:09.920Z,75.21
2019-01-18T23:27:12.211Z,75.00
2019-01-18T23:30:02.842Z,75.34
2019-01-18T23:32:40.913Z,75.50
2019-01-18T23:35:22.213Z,75.08
2019-01-18T23:38:00.381Z,74.94
2019-01-18T23:40:39.936Z,75.17
2019-01-18T23:43:24.432Z,75.42
2019-01-18T23:46:15.946Z,75.72
2019-01-18T23:49:02.488Z,76.16
2019-01-18T23:52:03.431Z,76.94
2019-01-18T23:54:47.832Z,76.08
2019-01-18T23:57:25.967Z,76.15
